Terminal Aerodrome Forecast
Issued by NWS Salt Lake City, UT

Home | Current Version | Previous Version | Text Only | Print | Product List | Glossary On
Versions: 1 2 3 4 5 6 7 8 9 10 11 12 13 14 15 16
000
FTUS45 KSLC 232038 AAA
TAFCDC
TAF AMD
KCDC 232038Z 2321/2418 34008KT 5SM -RA OVC005
     FM232200 33012KT 6SM -RASN BKN008 OVC020
     FM240200 VRB04KT P6SM VCSH SCT050 SCT120=

USA.gov is the U.S. government's official web portal to all federal, state and local government web resources and services.